createdAt,value
2023-01-03T00:02:27.804Z,100.00
2023-01-03T00:05:16.442Z,100.00
2023-01-03T00:08:06.566Z,100.00
2023-01-03T00:10:55.152Z,100.00
2023-01-03T00:13:43.181Z,100.00
2023-01-03T00:16:31.739Z,100.00
2023-01-03T00:19:21.083Z,100.00
2023-01-03T00:22:10.303Z,100.00
2023-01-03T00:25:00.161Z,100.00
2023-01-03T00:27:48.656Z,100.00
2023-01-03T00:30:37.106Z,100.00
2023-01-03T00:33:25.603Z,100.00
2023-01-03T00:36:14.114Z,100.00
2023-01-03T00:39:02.717Z,100.00
2023-01-03T00:41:52.853Z,100.00
2023-01-03T00:44:41.375Z,100.00
2023-01-03T00:47:29.929Z,100.00
2023-01-03T00:50:18.462Z,100.00
2023-01-03T00:53:06.971Z,100.00
2023-01-03T00:55:55.836Z,100.00
2023-01-03T00:58:45.940Z,100.00
2023-01-03T01:01:45.940Z,100.00
2023-01-03T01:04:35.493Z,100.00
2023-01-03T01:07:23.890Z,100.00
2023-01-03T01:10:12.420Z,100.00
2023-01-03T01:13:00.846Z,100.00
2023-01-03T01:15:50.749Z,100.00
2023-01-03T01:18:40.061Z,100.00
2023-01-03T01:21:29.888Z,100.00
2023-01-03T01:24:18.590Z,100.00
2023-01-03T01:27:07.187Z,100.00
2023-01-03T01:29:55.597Z,100.00
2023-01-03T01:32:45.415Z,100.00
2023-01-03T01:35:33.864Z,100.00
2023-01-03T01:38:22.292Z,100.00
2023-01-03T01:41:13.145Z,100.00
2023-01-03T01:44:18.996Z,100.00
2023-01-03T01:47:08.891Z,100.00
2023-01-03T01:50:05.200Z,100.00
2023-01-03T01:52:57.140Z,100.00
2023-01-03T01:55:48.234Z,100.00
2023-01-03T01:58:38.405Z,100.00
2023-01-03T02:01:27.240Z,100.00
2023-01-03T02:04:19.167Z,100.00
2023-01-03T02:07:09.091Z,100.00
2023-01-03T02:09:58.551Z,100.00
2023-01-03T02:13:07.052Z,100.00
2023-01-03T02:16:08.084Z,100.00
2023-01-03T02:19:05.378Z,100.00
2023-01-03T02:22:39.266Z,100.00
2023-01-03T02:26:05.972Z,100.00
2023-01-03T02:29:20.969Z,100.00
2023-01-03T02:32:13.762Z,100.00
2023-01-03T02:35:07.095Z,100.00
2023-01-03T02:37:58.699Z,100.00
2023-01-03T02:40:50.882Z,100.00
2023-01-03T02:43:46.461Z,100.00
2023-01-03T02:46:39.078Z,100.00
2023-01-03T02:49:33.502Z,100.00
2023-01-03T02:52:25.324Z,100.00
2023-01-03T02:55:17.293Z,100.00
2023-01-03T02:58:08.846Z,100.00
2023-01-03T03:00:59.885Z,100.00
2023-01-03T03:03:49.272Z,100.00
2023-01-03T03:06:42.916Z,100.00
2023-01-03T03:09:31.461Z,100.00
2023-01-03T03:12:37.411Z,100.00
2023-01-03T03:15:31.586Z,100.00
2023-01-03T03:18:23.362Z,100.00
2023-01-03T03:21:30.878Z,100.00
2023-01-03T03:24:40.729Z,100.00
2023-01-03T03:27:48.792Z,100.00
2023-01-03T03:30:39.644Z,100.00
2023-01-03T03:33:29.644Z,100.00
2023-01-03T03:36:20.775Z,100.00
2023-01-03T03:39:31.070Z,100.00
2023-01-03T03:42:42.212Z,100.00
2023-01-03T03:45:38.429Z,100.00
2023-01-03T03:48:30.769Z,100.00
2023-01-03T03:51:21.288Z,100.00
2023-01-03T03:54:13.239Z,100.00
2023-01-03T03:57:07.036Z,100.00
2023-01-03T03:59:59.596Z,100.00
2023-01-03T04:02:48.582Z,100.00
2023-01-03T04:05:40.974Z,100.00
2023-01-03T04:08:29.425Z,100.00
2023-01-03T04:11:18.024Z,100.00
2023-01-03T04:14:06.452Z,100.00
2023-01-03T04:16:56.515Z,100.00
2023-01-03T04:19:45.000Z,100.00
2023-01-03T04:22:33.510Z,100.00
2023-01-03T04:25:22.016Z,100.00
2023-01-03T04:28:10.502Z,100.00
2023-01-03T04:30:58.971Z,100.00
2023-01-03T04:33:48.783Z,100.00
2023-01-03T04:36:37.229Z,100.00
2023-01-03T04:39:25.835Z,100.00
2023-01-03T04:42:31.568Z,100.00
2023-01-03T04:45:20.047Z,100.00
2023-01-03T04:48:08.587Z,100.00
2023-01-03T04:51:00.502Z,100.00
2023-01-03T04:53:48.989Z,100.00
2023-01-03T04:56:38.636Z,100.00
2023-01-03T04:59:27.146Z,100.00
2023-01-03T05:02:15.782Z,100.00
2023-01-03T05:05:04.798Z,100.00
2023-01-03T05:07:54.675Z,100.00
2023-01-03T05:10:43.145Z,100.00
2023-01-03T05:13:31.686Z,100.00
2023-01-03T05:16:20.365Z,100.00
2023-01-03T05:19:08.842Z,100.00
2023-01-03T05:22:14.824Z,100.00
2023-01-03T05:25:24.447Z,100.00
2023-01-03T05:28:17.310Z,100.00
2023-01-03T05:31:06.395Z,100.00
2023-01-03T05:33:54.891Z,100.00
2023-01-03T05:36:43.390Z,100.00
2023-01-03T05:39:31.886Z,100.00
2023-01-03T05:42:21.671Z,100.00
2023-01-03T05:45:11.100Z,100.00
2023-01-03T05:47:59.732Z,100.00
2023-01-03T05:50:49.745Z,100.00
2023-01-03T05:53:38.213Z,100.00
2023-01-03T05:56:26.714Z,100.00
2023-01-03T05:59:16.584Z,100.00
2023-01-03T06:02:05.097Z,100.00
2023-01-03T06:04:53.733Z,100.00
2023-01-03T06:07:42.210Z,100.00
2023-01-03T06:10:30.685Z,100.00
2023-01-03T06:13:21.287Z,100.00
2023-01-03T06:16:30.394Z,100.00
2023-01-03T06:19:18.813Z,100.00
2023-01-03T06:22:10.891Z,100.00
2023-01-03T06:24:59.806Z,100.00
2023-01-03T06:27:48.238Z,100.00
2023-01-03T06:30:36.677Z,100.00
2023-01-03T06:33:26.481Z,100.00
2023-01-03T06:36:16.101Z,100.00
2023-01-03T06:39:04.804Z,100.00
2023-01-03T06:41:53.271Z,100.00
2023-01-03T06:44:41.771Z,100.00
2023-01-03T06:47:47.547Z,100.00
2023-01-03T06:50:57.505Z,100.00
2023-01-03T06:53:46.002Z,100.00
2023-01-03T06:56:34.516Z,100.00
2023-01-03T06:59:23.309Z,100.00
2023-01-03T07:02:11.890Z,100.00
2023-01-03T07:05:00.433Z,100.00
2023-01-03T07:07:50.305Z,100.00
2023-01-03T07:10:38.767Z,100.00
2023-01-03T07:13:41.142Z,100.00
2023-01-03T07:16:31.555Z,100.00
2023-01-03T07:19:20.887Z,100.00
2023-01-03T07:22:09.400Z,100.00
2023-01-03T07:24:59.180Z,100.00
2023-01-03T07:28:00.348Z,100.00
2023-01-03T07:30:52.173Z,100.00
2023-01-03T07:33:40.655Z,100.00
2023-01-03T07:36:29.121Z,100.00
2023-01-03T07:39:17.644Z,100.00
2023-01-03T07:42:33.444Z,100.00
2023-01-03T07:45:21.867Z,100.00
2023-01-03T07:48:10.947Z,100.00
2023-01-03T07:50:59.798Z,100.00
2023-01-03T07:53:50.863Z,100.00
2023-01-03T07:56:39.453Z,100.00
2023-01-03T07:59:29.318Z,100.00
2023-01-03T08:02:19.317Z,100.00
2023-01-03T08:05:08.500Z,100.00
2023-01-03T08:07:56.973Z,100.00
2023-01-03T08:11:02.741Z,100.00
2023-01-03T08:13:51.472Z,100.00
2023-01-03T08:16:41.375Z,100.00
2023-01-03T08:19:30.141Z,100.00
2023-01-03T08:22:18.595Z,100.00
2023-01-03T08:25:07.417Z,100.00
2023-01-03T08:27:58.735Z,100.00
2023-01-03T08:30:48.867Z,100.00
2023-01-03T08:33:42.905Z,100.00
2023-01-03T08:36:34.843Z,100.00
2023-01-03T08:39:26.127Z,100.00
2023-01-03T08:42:16.682Z,100.00
2023-01-03T08:45:08.193Z,100.00
2023-01-03T08:47:58.467Z,100.00
2023-01-03T08:50:48.545Z,100.00
2023-01-03T08:53:37.065Z,100.00
2023-01-03T08:56:25.549Z,100.00
2023-01-03T08:59:14.039Z,100.00
2023-01-03T09:02:03.162Z,100.00
2023-01-03T09:04:51.785Z,100.00
2023-01-03T09:07:41.657Z,100.00
2023-01-03T09:10:30.341Z,100.00
2023-01-03T09:13:18.897Z,100.00
2023-01-03T09:16:09.404Z,100.00
2023-01-03T09:18:58.178Z,100.00
2023-01-03T09:21:46.637Z,100.00
2023-01-03T09:24:36.495Z,100.00
2023-01-03T09:27:24.905Z,100.00
2023-01-03T09:30:14.616Z,100.00
2023-01-03T09:33:03.159Z,100.00
2023-01-03T09:35:54.099Z,100.00
2023-01-03T09:38:42.667Z,100.00
2023-01-03T09:41:33.676Z,100.00
2023-01-03T09:44:22.165Z,100.00
2023-01-03T09:47:18.069Z,100.00
2023-01-03T09:53:37.837Z,100.00
2023-01-03T09:56:44.167Z,100.00
2023-01-03T09:59:55.125Z,100.00
2023-01-03T10:03:09.864Z,100.00
2023-01-03T10:06:12.867Z,100.00
2023-01-03T10:09:15.595Z,99.88
2023-01-03T10:12:16.165Z,100.00
2023-01-03T10:15:15.878Z,100.00
2023-01-03T10:18:15.107Z,100.00
2023-01-03T10:21:07.731Z,100.00
2023-01-03T10:23:56.271Z,100.00
2023-01-03T10:26:44.735Z,99.30
2023-01-03T10:29:33.188Z,98.92
2023-01-03T10:32:38.485Z,96.81
2023-01-03T10:35:30.297Z,95.98
2023-01-03T10:38:19.009Z,95.71
2023-01-03T10:41:16.818Z,95.34
2023-01-03T10:44:05.815Z,94.87
2023-01-03T10:46:55.805Z,95.21
2023-01-03T10:49:48.156Z,94.98
2023-01-03T10:52:39.208Z,95.59
2023-01-03T10:55:28.465Z,94.16
2023-01-03T10:58:22.010Z,93.78
2023-01-03T11:01:12.828Z,93.70
2023-01-03T11:04:09.970Z,92.36
2023-01-03T11:07:15.879Z,90.58
2023-01-03T11:10:04.620Z,88.68
2023-01-03T11:12:53.181Z,88.81
2023-01-03T11:15:41.638Z,87.34
2023-01-03T11:18:31.615Z,86.39
2023-01-03T11:21:25.645Z,87.61
2023-01-03T11:24:25.122Z,86.80
2023-01-03T11:27:21.429Z,87.40
2023-01-03T11:30:18.508Z,85.33
2023-01-03T11:33:24.060Z,84.90
2023-01-03T11:36:31.890Z,85.45
2023-01-03T11:39:43.890Z,83.88
2023-01-03T11:42:40.358Z,83.32
2023-01-03T11:45:46.500Z,82.72
2023-01-03T11:49:00.333Z,82.77
2023-01-03T11:51:57.882Z,81.86
2023-01-03T11:55:09.171Z,82.77
2023-01-03T11:58:07.337Z,82.30
2023-01-03T12:01:00.583Z,82.11
2023-01-03T12:04:03.752Z,82.57
2023-01-03T12:07:45.227Z,82.56
2023-01-03T12:10:17.561Z,82.70
2023-01-03T12:13:21.452Z,82.87
2023-01-03T12:16:15.518Z,81.97
2023-01-03T12:19:12.494Z,81.24
2023-01-03T12:22:05.161Z,81.95
2023-01-03T12:25:04.796Z,81.35
2023-01-03T12:27:58.290Z,80.63
2023-01-03T12:30:49.505Z,81.50
2023-01-03T12:33:42.807Z,80.34
2023-01-03T12:36:37.693Z,79.55
2023-01-03T12:39:34.556Z,78.96
2023-01-03T12:42:33.259Z,79.24
2023-01-03T12:45:34.849Z,79.41
2023-01-03T12:48:34.611Z,79.01
2023-01-03T12:51:24.630Z,80.66
2023-01-03T12:54:21.626Z,80.64
2023-01-03T12:57:42.227Z,79.23
2023-01-03T13:00:47.829Z,77.72
2023-01-03T13:03:40.128Z,77.49
2023-01-03T13:06:31.584Z,76.24
2023-01-03T13:09:24.080Z,74.74
2023-01-03T13:12:15.773Z,74.53
2023-01-03T13:15:14.990Z,75.16
2023-01-03T13:18:36.732Z,75.63
2023-01-03T13:22:02.399Z,75.29
2023-01-03T13:24:52.306Z,75.43
2023-01-03T13:27:49.426Z,75.64
2023-01-03T13:30:38.473Z,75.08
2023-01-03T13:33:26.992Z,74.68
2023-01-03T13:36:16.837Z,75.32
2023-01-03T13:39:33.546Z,75.57
2023-01-03T13:42:23.764Z,75.39
2023-01-03T13:45:54.876Z,76.57
2023-01-03T13:48:54.391Z,74.88
2023-01-03T13:51:53.981Z,74.84
2023-01-03T13:55:06.872Z,75.44
2023-01-03T13:57:55.365Z,75.38
2023-01-03T14:00:44.398Z,75.97
2023-01-03T14:03:48.849Z,77.19
2023-01-03T14:06:53.050Z,76.29
2023-01-03T14:10:14.814Z,76.80
2023-01-03T14:13:31.029Z,76.94
2023-01-03T14:16:27.587Z,76.93
2023-01-03T14:19:21.024Z,76.81
2023-01-03T14:22:30.348Z,77.42
2023-01-03T14:25:34.044Z,77.73
2023-01-03T14:28:24.391Z,77.99
2023-01-03T14:31:18.832Z,78.01
2023-01-03T14:34:11.446Z,78.08
2023-01-03T14:37:04.345Z,78.87
2023-01-03T14:39:55.282Z,78.46
2023-01-03T14:42:46.246Z,77.91
2023-01-03T14:45:34.776Z,78.44
2023-01-03T14:48:24.212Z,79.06
2023-01-03T14:51:12.715Z,78.75
2023-01-03T14:54:01.640Z,79.11
2023-01-03T14:56:51.505Z,79.73
2023-01-03T14:59:40.063Z,79.98
2023-01-03T15:02:29.661Z,80.67
2023-01-03T15:05:30.319Z,81.33
2023-01-03T15:08:23.262Z,81.67
2023-01-03T15:11:13.379Z,81.65
2023-01-03T15:14:04.702Z,82.03
2023-01-03T15:16:53.642Z,81.89
2023-01-03T15:19:48.696Z,82.37
2023-01-03T15:22:41.290Z,82.72
2023-01-03T15:25:35.603Z,83.20
2023-01-03T15:28:27.230Z,83.32
2023-01-03T15:31:30.047Z,83.58
2023-01-03T15:34:21.822Z,84.81
2023-01-03T15:37:14.655Z,85.16
2023-01-03T15:40:06.187Z,85.48
2023-01-03T15:43:12.316Z,86.35
2023-01-03T15:46:03.838Z,86.96
2023-01-03T15:48:56.927Z,87.19
2023-01-03T15:51:46.197Z,87.84
2023-01-03T15:54:34.736Z,88.25
2023-01-03T15:57:25.019Z,88.54
2023-01-03T16:00:17.959Z,90.53
2023-01-03T16:03:06.599Z,91.22
2023-01-03T16:05:56.605Z,92.18
2023-01-03T16:08:45.397Z,92.93
2023-01-03T16:11:34.756Z,93.33
2023-01-03T16:14:25.163Z,94.13
2023-01-03T16:17:24.113Z,94.55
2023-01-03T16:20:15.810Z,95.29
2023-01-03T16:23:05.693Z,96.40
2023-01-03T16:25:57.315Z,96.32
2023-01-03T16:28:45.844Z,97.69
2023-01-03T16:31:34.747Z,98.49
2023-01-03T16:34:28.798Z,98.93
2023-01-03T16:37:20.954Z,100.00
2023-01-03T16:40:15.113Z,100.00
2023-01-03T16:43:05.084Z,100.00
2023-01-03T16:45:54.525Z,100.00
2023-01-03T16:48:47.833Z,100.00
2023-01-03T16:51:39.496Z,100.00
2023-01-03T16:54:31.288Z,100.00
2023-01-03T16:57:22.479Z,100.00
2023-01-03T17:00:17.882Z,100.00
2023-01-03T17:03:06.528Z,100.00
2023-01-03T17:05:55.252Z,100.00
2023-01-03T17:08:44.028Z,100.00
2023-01-03T17:11:33.509Z,100.00
2023-01-03T17:14:23.826Z,100.00
2023-01-03T17:17:17.028Z,100.00
2023-01-03T17:20:15.046Z,100.00
2023-01-03T17:23:03.859Z,100.00
2023-01-03T17:25:52.591Z,100.00
2023-01-03T17:28:41.331Z,100.00
2023-01-03T17:31:32.897Z,100.00
2023-01-03T17:34:25.306Z,100.00
2023-01-03T17:37:16.742Z,100.00
2023-01-03T17:40:07.328Z,100.00
2023-01-03T17:42:58.380Z,100.00
2023-01-03T17:46:05.828Z,100.00
2023-01-03T17:49:13.386Z,100.00
2023-01-03T17:52:05.520Z,100.00
2023-01-03T17:54:55.173Z,100.00
2023-01-03T17:57:43.868Z,100.00
2023-01-03T18:00:39.455Z,100.00
2023-01-03T18:03:28.096Z,100.00
2023-01-03T18:06:22.004Z,100.00
2023-01-03T18:09:15.082Z,100.00
2023-01-03T18:12:03.618Z,100.00
2023-01-03T18:14:52.133Z,100.00
2023-01-03T18:17:40.658Z,100.00
2023-01-03T18:20:29.210Z,100.00
2023-01-03T18:23:21.564Z,100.00
2023-01-03T18:26:13.853Z,100.00
2023-01-03T18:29:02.418Z,100.00
2023-01-03T18:31:51.866Z,100.00
2023-01-03T18:34:40.496Z,100.00
2023-01-03T18:37:32.327Z,100.00
2023-01-03T18:40:26.321Z,100.00
2023-01-03T18:43:15.324Z,100.00
2023-01-03T18:46:04.935Z,100.00
2023-01-03T18:48:53.786Z,100.00
2023-01-03T18:51:42.385Z,100.00
2023-01-03T18:54:30.963Z,100.00
2023-01-03T18:57:20.944Z,100.00
2023-01-03T19:00:16.368Z,100.00
2023-01-03T19:03:15.846Z,100.00
2023-01-03T19:06:14.018Z,100.00
2023-01-03T19:09:05.225Z,100.00
2023-01-03T19:11:54.842Z,100.00
2023-01-03T19:14:49.823Z,100.00
2023-01-03T19:17:38.340Z,100.00
2023-01-03T19:20:27.484Z,100.00
2023-01-03T19:23:20.449Z,100.00
2023-01-03T19:26:25.175Z,100.00
2023-01-03T19:29:21.949Z,100.00
2023-01-03T19:32:17.240Z,100.00
2023-01-03T19:35:14.572Z,100.00
2023-01-03T19:38:03.050Z,100.00
2023-01-03T19:40:51.573Z,100.00
2023-01-03T19:43:40.343Z,100.00
2023-01-03T19:46:29.095Z,100.00
2023-01-03T19:49:19.551Z,100.00
2023-01-03T19:52:08.016Z,100.00
2023-01-03T19:54:56.473Z,100.00
2023-01-03T19:57:48.028Z,100.00
2023-01-03T20:00:37.096Z,100.00
2023-01-03T20:03:29.961Z,100.00
2023-01-03T20:06:19.977Z,100.00
2023-01-03T20:09:08.465Z,100.00
2023-01-03T20:11:56.997Z,100.00
2023-01-03T20:14:48.605Z,100.00
2023-01-03T20:17:37.330Z,100.00
2023-01-03T20:20:29.561Z,100.00
2023-01-03T20:23:19.632Z,100.00
2023-01-03T20:26:10.325Z,100.00
2023-01-03T20:28:59.919Z,100.00
2023-01-03T20:31:48.906Z,100.00
2023-01-03T20:34:37.774Z,100.00
2023-01-03T20:37:26.336Z,100.00
2023-01-03T20:40:18.007Z,100.00
2023-01-03T20:43:06.570Z,100.00
2023-01-03T20:45:57.128Z,100.00
2023-01-03T20:48:48.497Z,100.00
2023-01-03T20:51:36.991Z,100.00
2023-01-03T20:54:25.453Z,100.00
2023-01-03T20:57:20.652Z,100.00
2023-01-03T21:00:20.420Z,100.00
2023-01-03T21:03:09.164Z,100.00
2023-01-03T21:05:59.051Z,100.00
2023-01-03T21:08:57.769Z,100.00
2023-01-03T21:11:47.051Z,100.00
2023-01-03T21:14:37.044Z,100.00
2023-01-03T21:17:25.569Z,100.00
2023-01-03T21:20:16.196Z,100.00
2023-01-03T21:23:04.710Z,100.00
2023-01-03T21:25:56.067Z,100.00
2023-01-03T21:28:44.566Z,100.00
2023-01-03T21:31:35.191Z,100.00
2023-01-03T21:34:23.771Z,100.00
2023-01-03T21:37:12.276Z,100.00
2023-01-03T21:40:00.804Z,100.00
2023-01-03T21:43:05.063Z,100.00
2023-01-03T21:45:56.258Z,100.00
2023-01-03T21:48:46.570Z,100.00
2023-01-03T21:51:38.858Z,100.00
2023-01-03T21:54:27.817Z,100.00
2023-01-03T21:57:22.735Z,100.00
2023-01-03T22:00:12.939Z,100.00
2023-01-03T22:03:21.599Z,100.00
2023-01-03T22:06:13.554Z,100.00
2023-01-03T22:09:04.417Z,100.00
2023-01-03T22:11:53.587Z,100.00
2023-01-03T22:14:42.121Z,100.00
2023-01-03T22:17:30.574Z,100.00
2023-01-03T22:20:21.021Z,100.00
2023-01-03T22:23:12.096Z,100.00
2023-01-03T22:26:02.615Z,100.00
2023-01-03T22:28:51.120Z,100.00
2023-01-03T22:31:42.158Z,100.00
2023-01-03T22:34:30.720Z,100.00
2023-01-03T22:37:19.696Z,100.00
2023-01-03T22:40:12.912Z,100.00
2023-01-03T22:43:01.432Z,100.00
2023-01-03T22:45:49.921Z,100.00
2023-01-03T22:48:38.836Z,100.00
2023-01-03T22:51:27.333Z,100.00
2023-01-03T22:54:15.763Z,100.00
2023-01-03T22:57:05.791Z,100.00
2023-01-03T22:59:54.364Z,100.00
2023-01-03T23:02:42.918Z,100.00
2023-01-03T23:05:31.464Z,100.00
2023-01-03T23:08:20.002Z,100.00
2023-01-03T23:11:33.434Z,100.00
2023-01-03T23:14:26.647Z,100.00
2023-01-03T23:17:32.802Z,100.00
2023-01-03T23:20:21.319Z,100.00
2023-01-03T23:23:10.752Z,100.00
2023-01-03T23:26:01.778Z,100.00
2023-01-03T23:28:50.280Z,100.00
2023-01-03T23:31:40.163Z,100.00
2023-01-03T23:34:28.658Z,100.00
2023-01-03T23:37:17.136Z,100.00
2023-01-03T23:40:06.866Z,100.00
2023-01-03T23:42:55.376Z,100.00
2023-01-03T23:45:43.854Z,100.00
2023-01-03T23:48:33.879Z,100.00
2023-01-03T23:51:22.386Z,100.00
2023-01-03T23:54:11.147Z,100.00
2023-01-03T23:57:00.128Z,100.00
2023-01-03T23:59:48.583Z,100.00
